<?xml version="1.0" encoding="UTF-8" standalone="no" ?>
<gpx xmlns="http://www.topografix.com/GPX/1/1" xmlns:xsi="http://www.w3.org/2001/XMLSchema-instance" xsi:schemaLocation="http://www.topografix.com/GPX/1/1 http://www.topografix.com/GPX/1/1/gpx.xsd" version="1.1" creator="VisuGPX - https://www.visugpx.com">
  <metadata>
    <name>randonnée Gare à gare jusqu'à la frontière du Tarn</name>
  </metadata>
  <trk>
    <name><![CDATA[randonnée Gare à gare jusqu'à la frontière du Tarn]]></name>
    <trkseg>
      <trkpt lat="44.06712" lon="1.90028">
        <ele>169.59907</ele>
        <time>2022-05-04T11:12:17.063Z</time>
      </trkpt>
      <trkpt lat="44.06718" lon="1.90043">
        <ele>169.59907</ele>
        <time>2022-05-04T11:12:27.170Z</time>
      </trkpt>
      <trkpt lat="44.06732" lon="1.90054">
        <ele>169.59907</ele>
        <time>2022-05-04T11:12:40.349Z</time>
      </trkpt>
      <trkpt lat="44.06667" lon="1.90109">
        <ele>169.615815</ele>
        <time>2022-05-04T11:13:43.155Z</time>
      </trkpt>
      <trkpt lat="44.06617" lon="1.90208">
        <ele>169.716477</ele>
        <time>2022-05-04T11:14:53.484Z</time>
      </trkpt>
      <trkpt lat="44.06469" lon="1.9031">
        <ele>170.716455</ele>
        <time>2022-05-04T11:17:11.349Z</time>
      </trkpt>
      <trkpt lat="44.06402" lon="1.90382">
        <ele>171.607324</ele>
        <time>2022-05-04T11:18:22.700Z</time>
      </trkpt>
      <trkpt lat="44.06366" lon="1.90431">
        <ele>171.339519</ele>
        <time>2022-05-04T11:19:03.119Z</time>
      </trkpt>
      <trkpt lat="44.06348" lon="1.90466">
        <ele>171.086213</ele>
        <time>2022-05-04T11:19:27.930Z</time>
      </trkpt>
      <trkpt lat="44.06334" lon="1.90506">
        <ele>170.819398</ele>
        <time>2022-05-04T11:19:54.246Z</time>
      </trkpt>
      <trkpt lat="44.06321" lon="1.9057">
        <ele>170.423817</ele>
        <time>2022-05-04T11:20:33.733Z</time>
      </trkpt>
      <trkpt lat="44.06316" lon="1.90618">
        <ele>170.120524</ele>
        <time>2022-05-04T11:21:02.368Z</time>
      </trkpt>
      <trkpt lat="44.06316" lon="1.90689">
        <ele>169.576827</ele>
        <time>2022-05-04T11:21:45.053Z</time>
      </trkpt>
      <trkpt lat="44.06325" lon="1.90762">
        <ele>169.017474</ele>
        <time>2022-05-04T11:22:29.182Z</time>
      </trkpt>
      <trkpt lat="44.06448" lon="1.9126">
        <ele>168.345641</ele>
        <time>2022-05-04T11:27:32.012Z</time>
      </trkpt>
      <trkpt lat="44.06361" lon="1.91252">
        <ele>168.703603</ele>
        <time>2022-05-04T11:28:42.824Z</time>
      </trkpt>
      <trkpt lat="44.06308" lon="1.9123">
        <ele>169.160777</ele>
        <time>2022-05-04T11:29:27.688Z</time>
      </trkpt>
      <trkpt lat="44.06288" lon="1.91229">
        <ele>169.32408</ele>
        <time>2022-05-04T11:29:43.852Z</time>
      </trkpt>
      <trkpt lat="44.06342" lon="1.91355">
        <ele>170.71629</ele>
        <time>2022-05-04T11:31:12.203Z</time>
      </trkpt>
      <trkpt lat="44.0646" lon="1.91604">
        <ele>175.500457</ele>
        <time>2022-05-04T11:34:18.771Z</time>
      </trkpt>
      <trkpt lat="44.06444" lon="1.9162">
        <ele>175.94334</ele>
        <time>2022-05-04T11:34:35.401Z</time>
      </trkpt>
      <trkpt lat="44.06443" lon="1.91677">
        <ele>176.91236</ele>
        <time>2022-05-04T11:35:11.462Z</time>
      </trkpt>
      <trkpt lat="44.06439" lon="1.91704">
        <ele>177.360705</ele>
        <time>2022-05-04T11:35:28.078Z</time>
      </trkpt>
      <trkpt lat="44.06371" lon="1.91904">
        <ele>180.168948</ele>
        <time>2022-05-04T11:37:43.597Z</time>
      </trkpt>
      <trkpt lat="44.06326" lon="1.92025">
        <ele>181.745422</ele>
        <time>2022-05-04T11:39:05.577Z</time>
      </trkpt>
      <trkpt lat="44.06322" lon="1.92093">
        <ele>182.506899</ele>
        <time>2022-05-04T11:39:46.312Z</time>
      </trkpt>
      <trkpt lat="44.06343" lon="1.92246">
        <ele>184.621886</ele>
        <time>2022-05-04T11:41:21.877Z</time>
      </trkpt>
      <trkpt lat="44.06335" lon="1.9228">
        <ele>185.314037</ele>
        <time>2022-05-04T11:41:44.357Z</time>
      </trkpt>
      <trkpt lat="44.06288" lon="1.92364">
        <ele>187.409057</ele>
        <time>2022-05-04T11:42:52.418Z</time>
      </trkpt>
      <trkpt lat="44.06259" lon="1.92443">
        <ele>189.060575</ele>
        <time>2022-05-04T11:43:49.034Z</time>
      </trkpt>
      <trkpt lat="44.06248" lon="1.92458">
        <ele>189.410981</ele>
        <time>2022-05-04T11:44:03.367Z</time>
      </trkpt>
      <trkpt lat="44.06244" lon="1.92491">
        <ele>189.943492</ele>
        <time>2022-05-04T11:44:23.922Z</time>
      </trkpt>
      <trkpt lat="44.06208" lon="1.92619">
        <ele>192.115325</ele>
        <time>2022-05-04T11:45:48.037Z</time>
      </trkpt>
      <trkpt lat="44.06259" lon="1.9274">
        <ele>194.780187</ele>
        <time>2022-05-04T11:47:14.495Z</time>
      </trkpt>
      <trkpt lat="44.06281" lon="1.92762">
        <ele>195.510438</ele>
        <time>2022-05-04T11:47:37.687Z</time>
      </trkpt>
      <trkpt lat="44.06298" lon="1.92795">
        <ele>196.327608</ele>
        <time>2022-05-04T11:48:03.918Z</time>
      </trkpt>
      <trkpt lat="44.06395" lon="1.92986">
        <ele>202.06152</ele>
        <time>2022-05-04T11:50:36.984Z</time>
      </trkpt>
      <trkpt lat="44.06398" lon="1.93004">
        <ele>202.530999</ele>
        <time>2022-05-04T11:50:48.631Z</time>
      </trkpt>
      <trkpt lat="44.06357" lon="1.93097">
        <ele>204.37202</ele>
        <time>2022-05-04T11:51:59.059Z</time>
      </trkpt>
      <trkpt lat="44.06297" lon="1.93193">
        <ele>204.791658</ele>
        <time>2022-05-04T11:53:14.061Z</time>
      </trkpt>
      <trkpt lat="44.06285" lon="1.93243">
        <ele>204.967583</ele>
        <time>2022-05-04T11:53:45.391Z</time>
      </trkpt>
      <trkpt lat="44.06286" lon="1.93309">
        <ele>203.99056</ele>
        <time>2022-05-04T11:54:25.743Z</time>
      </trkpt>
      <trkpt lat="44.06381" lon="1.9345">
        <ele>198.950524</ele>
        <time>2022-05-04T11:56:26.410Z</time>
      </trkpt>
      <trkpt lat="44.06398" lon="1.93503">
        <ele>197.102479</ele>
        <time>2022-05-04T11:57:02.824Z</time>
      </trkpt>
      <trkpt lat="44.06347" lon="1.93644">
        <ele>191.737212</ele>
        <time>2022-05-04T11:58:42.540Z</time>
      </trkpt>
      <trkpt lat="44.06344" lon="1.93729">
        <ele>188.906531</ele>
        <time>2022-05-04T11:59:36.246Z</time>
      </trkpt>
      <trkpt lat="44.06294" lon="1.93798">
        <ele>185.781385</ele>
        <time>2022-05-04T12:00:37.696Z</time>
      </trkpt>
      <trkpt lat="44.06268" lon="1.93847">
        <ele>183.837192</ele>
        <time>2022-05-04T12:01:15.800Z</time>
      </trkpt>
      <trkpt lat="44.06257" lon="1.93882">
        <ele>182.585694</ele>
        <time>2022-05-04T12:01:40.307Z</time>
      </trkpt>
      <trkpt lat="44.0626" lon="1.93975">
        <ele>180.592283</ele>
        <time>2022-05-04T12:02:37.826Z</time>
      </trkpt>
      <trkpt lat="44.06269" lon="1.94008">
        <ele>179.909065</ele>
        <time>2022-05-04T12:02:59.526Z</time>
      </trkpt>
      <trkpt lat="44.06293" lon="1.94065">
        <ele>178.660402</ele>
        <time>2022-05-04T12:03:38.894Z</time>
      </trkpt>
      <trkpt lat="44.06305" lon="1.94113">
        <ele>177.704792</ele>
        <time>2022-05-04T12:04:08.998Z</time>
      </trkpt>
      <trkpt lat="44.06228" lon="1.94187">
        <ele>177.718889</ele>
        <time>2022-05-04T12:05:26.695Z</time>
      </trkpt>
      <trkpt lat="44.06222" lon="1.94191">
        <ele>177.761077</ele>
        <time>2022-05-04T12:05:32.478Z</time>
      </trkpt>
      <trkpt lat="44.06286" lon="1.94301">
        <ele>178.854541</ele>
        <time>2022-05-04T12:06:59.973Z</time>
      </trkpt>
      <trkpt lat="44.06279" lon="1.9437">
        <ele>183.533877</ele>
        <time>2022-05-04T12:07:47.437Z</time>
      </trkpt>
      <trkpt lat="44.0629" lon="1.94396">
        <ele>185.554771</ele>
        <time>2022-05-04T12:08:08.461Z</time>
      </trkpt>
      <trkpt lat="44.0631" lon="1.94447">
        <ele>189.444504</ele>
        <time>2022-05-04T12:08:50.972Z</time>
      </trkpt>
      <trkpt lat="44.06331" lon="1.9454">
        <ele>196.841377</ele>
        <time>2022-05-04T12:10:22.198Z</time>
      </trkpt>
      <trkpt lat="44.06335" lon="1.94578">
        <ele>202.270785</ele>
        <time>2022-05-04T12:11:02.544Z</time>
      </trkpt>
      <trkpt lat="44.06332" lon="1.94637">
        <ele>210.540902</ele>
        <time>2022-05-04T12:12:10.213Z</time>
      </trkpt>
      <trkpt lat="44.06335" lon="1.94672">
        <ele>215.43651</ele>
        <time>2022-05-04T12:12:47.865Z</time>
      </trkpt>
      <trkpt lat="44.06343" lon="1.94701">
        <ele>219.770896</ele>
        <time>2022-05-04T12:13:26.438Z</time>
      </trkpt>
      <trkpt lat="44.06419" lon="1.94739">
        <ele>234.298226</ele>
        <time>2022-05-04T12:15:37.705Z</time>
      </trkpt>
      <trkpt lat="44.06444" lon="1.94768">
        <ele>239.054099</ele>
        <time>2022-05-04T12:16:31.413Z</time>
      </trkpt>
      <trkpt lat="44.0644" lon="1.94822">
        <ele>244.750971</ele>
        <time>2022-05-04T12:17:30.597Z</time>
      </trkpt>
      <trkpt lat="44.06431" lon="1.94919">
        <ele>254.992104</ele>
        <time>2022-05-04T12:18:44.872Z</time>
      </trkpt>
      <trkpt lat="44.06459" lon="1.94998">
        <ele>257.661844</ele>
        <time>2022-05-04T12:19:43.236Z</time>
      </trkpt>
      <trkpt lat="44.06482" lon="1.9506">
        <ele>258.751766</ele>
        <time>2022-05-04T12:20:25.607Z</time>
      </trkpt>
      <trkpt lat="44.06497" lon="1.95143">
        <ele>260.065233</ele>
        <time>2022-05-04T12:21:18.196Z</time>
      </trkpt>
      <trkpt lat="44.065" lon="1.95164">
        <ele>260.393915</ele>
        <time>2022-05-04T12:21:31.109Z</time>
      </trkpt>
      <trkpt lat="44.06497" lon="1.95143">
        <ele>260.832631</ele>
        <time>2022-05-04T12:21:46.409Z</time>
      </trkpt>
      <trkpt lat="44.06494" lon="1.95189">
        <ele>261.786871</ele>
        <time>2022-05-04T12:22:14.029Z</time>
      </trkpt>
      <trkpt lat="44.06482" lon="1.95207">
        <ele>262.291669</ele>
        <time>2022-05-04T12:22:28.125Z</time>
      </trkpt>
      <trkpt lat="44.06476" lon="1.95179">
        <ele>262.897623</ele>
        <time>2022-05-04T12:22:48.891Z</time>
      </trkpt>
      <trkpt lat="44.06477" lon="1.95154">
        <ele>263.413214</ele>
        <time>2022-05-04T12:23:03.297Z</time>
      </trkpt>
      <trkpt lat="44.06462" lon="1.95099">
        <ele>264.636341</ele>
        <time>2022-05-04T12:23:42.042Z</time>
      </trkpt>
      <trkpt lat="44.06422" lon="1.95">
        <ele>266.698685</ele>
        <time>2022-05-04T12:24:56.575Z</time>
      </trkpt>
      <trkpt lat="44.06416" lon="1.94996">
        <ele>266.841478</ele>
        <time>2022-05-04T12:25:02.393Z</time>
      </trkpt>
      <trkpt lat="44.06404" lon="1.94886">
        <ele>268.677258</ele>
        <time>2022-05-04T12:26:10.129Z</time>
      </trkpt>
      <trkpt lat="44.06391" lon="1.9489">
        <ele>268.976861</ele>
        <time>2022-05-04T12:26:21.159Z</time>
      </trkpt>
      <trkpt lat="44.06384" lon="1.9486">
        <ele>269.499228</ele>
        <time>2022-05-04T12:26:39.511Z</time>
      </trkpt>
      <trkpt lat="44.06374" lon="1.94859">
        <ele>269.710622</ele>
        <time>2022-05-04T12:26:48.089Z</time>
      </trkpt>
      <trkpt lat="44.06365" lon="1.94858">
        <ele>269.810594</ele>
        <time>2022-05-04T12:26:54.937Z</time>
      </trkpt>
      <trkpt lat="44.06366" lon="1.94869">
        <ele>269.902805</ele>
        <time>2022-05-04T12:27:01.885Z</time>
      </trkpt>
      <trkpt lat="44.06365" lon="1.94877">
        <ele>269.974586</ele>
        <time>2022-05-04T12:27:06.847Z</time>
      </trkpt>
      <trkpt lat="44.06365" lon="1.94883">
        <ele>270.025118</ele>
        <time>2022-05-04T12:27:10.229Z</time>
      </trkpt>
      <trkpt lat="44.06358" lon="1.94918">
        <ele>270.337049</ele>
        <time>2022-05-04T12:27:32.765Z</time>
      </trkpt>
      <trkpt lat="44.06348" lon="1.95068">
        <ele>271.614249</ele>
        <time>2022-05-04T12:29:05.477Z</time>
      </trkpt>
      <trkpt lat="44.06346" lon="1.95081">
        <ele>271.733085</ele>
        <time>2022-05-04T12:29:14.006Z</time>
      </trkpt>
      <trkpt lat="44.06336" lon="1.95132">
        <ele>269.717105</ele>
        <time>2022-05-04T12:29:44.951Z</time>
      </trkpt>
      <trkpt lat="44.06334" lon="1.95142">
        <ele>269.158218</ele>
        <time>2022-05-04T12:29:51.877Z</time>
      </trkpt>
      <trkpt lat="44.06331" lon="1.95159">
        <ele>268.270355</ele>
        <time>2022-05-04T12:30:03.092Z</time>
      </trkpt>
      <trkpt lat="44.06326" lon="1.9519">
        <ele>266.6585</ele>
        <time>2022-05-04T12:30:22.799Z</time>
      </trkpt>
      <trkpt lat="44.0632" lon="1.95238">
        <ele>264.182721</ele>
        <time>2022-05-04T12:30:54.882Z</time>
      </trkpt>
      <trkpt lat="44.06314" lon="1.95285">
        <ele>261.728264</ele>
        <time>2022-05-04T12:31:27.984Z</time>
      </trkpt>
      <trkpt lat="44.06311" lon="1.95293">
        <ele>261.272537</ele>
        <time>2022-05-04T12:31:34.657Z</time>
      </trkpt>
      <trkpt lat="44.06309" lon="1.95302">
        <ele>260.789976</ele>
        <time>2022-05-04T12:31:41.655Z</time>
      </trkpt>
      <trkpt lat="44.06316" lon="1.95324">
        <ele>259.515848</ele>
        <time>2022-05-04T12:31:58.399Z</time>
      </trkpt>
      <trkpt lat="44.06308" lon="1.95343">
        <ele>258.02554</ele>
        <time>2022-05-04T12:32:14.812Z</time>
      </trkpt>
      <trkpt lat="44.06303" lon="1.95342">
        <ele>257.481146</ele>
        <time>2022-05-04T12:32:19.760Z</time>
      </trkpt>
      <trkpt lat="44.063" lon="1.95338">
        <ele>257.051865</ele>
        <time>2022-05-04T12:32:23.266Z</time>
      </trkpt>
      <trkpt lat="44.06292" lon="1.95329">
        <ele>255.89702</ele>
        <time>2022-05-04T12:32:33.102Z</time>
      </trkpt>
      <trkpt lat="44.06295" lon="1.95345">
        <ele>254.551128</ele>
        <time>2022-05-04T12:32:46.210Z</time>
      </trkpt>
      <trkpt lat="44.06311" lon="1.95368">
        <ele>251.957748</ele>
        <time>2022-05-04T12:33:09.880Z</time>
      </trkpt>
      <trkpt lat="44.06302" lon="1.95382">
        <ele>250.420894</ele>
        <time>2022-05-04T12:33:24.374Z</time>
      </trkpt>
      <trkpt lat="44.06296" lon="1.95386">
        <ele>249.635712</ele>
        <time>2022-05-04T12:33:31.584Z</time>
      </trkpt>
      <trkpt lat="44.06282" lon="1.95379">
        <ele>247.888015</ele>
        <time>2022-05-04T12:33:46.533Z</time>
      </trkpt>
      <trkpt lat="44.06276" lon="1.95393">
        <ele>246.536362</ele>
        <time>2022-05-04T12:33:59.031Z</time>
      </trkpt>
      <trkpt lat="44.06285" lon="1.95439">
        <ele>242.686704</ele>
        <time>2022-05-04T12:34:32.106Z</time>
      </trkpt>
      <trkpt lat="44.06287" lon="1.95467">
        <ele>240.408158</ele>
        <time>2022-05-04T12:34:49.918Z</time>
      </trkpt>
      <trkpt lat="44.06281" lon="1.95494">
        <ele>238.673869</ele>
        <time>2022-05-04T12:35:08.466Z</time>
      </trkpt>
      <trkpt lat="44.06268" lon="1.95513">
        <ele>238.232083</ele>
        <time>2022-05-04T12:35:24.815Z</time>
      </trkpt>
      <trkpt lat="44.06267" lon="1.95515">
        <ele>238.19264</ele>
        <time>2022-05-04T12:35:26.350Z</time>
      </trkpt>
      <trkpt lat="44.06266" lon="1.95517">
        <ele>238.150772</ele>
        <time>2022-05-04T12:35:28.005Z</time>
      </trkpt>
      <trkpt lat="44.06266" lon="1.95517">
        <ele>238.150772</ele>
        <time>2022-05-04T12:35:28.173Z</time>
      </trkpt>
      <trkpt lat="44.06267" lon="1.95528">
        <ele>237.964478</ele>
        <time>2022-05-04T12:35:35.645Z</time>
      </trkpt>
      <trkpt lat="44.06284" lon="1.95533">
        <ele>237.563416</ele>
        <time>2022-05-04T12:35:49.823Z</time>
      </trkpt>
      <trkpt lat="44.06312" lon="1.95526">
        <ele>236.884584</ele>
        <time>2022-05-04T12:36:14.970Z</time>
      </trkpt>
      <trkpt lat="44.06334" lon="1.95503">
        <ele>236.261638</ele>
        <time>2022-05-04T12:36:36.832Z</time>
      </trkpt>
      <trkpt lat="44.06349" lon="1.95489">
        <ele>235.833465</ele>
        <time>2022-05-04T12:36:52.985Z</time>
      </trkpt>
      <trkpt lat="44.06391" lon="1.95406">
        <ele>233.835806</ele>
        <time>2022-05-04T12:37:52.367Z</time>
      </trkpt>
      <trkpt lat="44.06406" lon="1.95391">
        <ele>233.17301</ele>
        <time>2022-05-04T12:38:07.119Z</time>
      </trkpt>
      <trkpt lat="44.06409" lon="1.95363">
        <ele>232.42329</ele>
        <time>2022-05-04T12:38:23.899Z</time>
      </trkpt>
      <trkpt lat="44.06428" lon="1.95334">
        <ele>231.3693</ele>
        <time>2022-05-04T12:38:47.395Z</time>
      </trkpt>
      <trkpt lat="44.06444" lon="1.95324">
        <ele>230.749411</ele>
        <time>2022-05-04T12:39:02.124Z</time>
      </trkpt>
      <trkpt lat="44.06454" lon="1.95332">
        <ele>230.311902</ele>
        <time>2022-05-04T12:39:12.694Z</time>
      </trkpt>
      <trkpt lat="44.06466" lon="1.95308">
        <ele>229.520155</ele>
        <time>2022-05-04T12:39:32.052Z</time>
      </trkpt>
      <trkpt lat="44.06487" lon="1.95288">
        <ele>228.595557</ele>
        <time>2022-05-04T12:39:54.905Z</time>
      </trkpt>
      <trkpt lat="44.06489" lon="1.95276">
        <ele>228.263965</ele>
        <time>2022-05-04T12:40:03.206Z</time>
      </trkpt>
      <trkpt lat="44.06498" lon="1.95262">
        <ele>227.372105</ele>
        <time>2022-05-04T12:40:15.306Z</time>
      </trkpt>
      <trkpt lat="44.06512" lon="1.95278">
        <ele>225.44555</ele>
        <time>2022-05-04T12:40:32.920Z</time>
      </trkpt>
      <trkpt lat="44.06529" lon="1.95266">
        <ele>223.437985</ele>
        <time>2022-05-04T12:40:50.238Z</time>
      </trkpt>
      <trkpt lat="44.0655" lon="1.95268">
        <ele>221.225785</ele>
        <time>2022-05-04T12:41:10.821Z</time>
      </trkpt>
      <trkpt lat="44.06558" lon="1.95266">
        <ele>220.384886</ele>
        <time>2022-05-04T12:41:18.505Z</time>
      </trkpt>
      <trkpt lat="44.06563" lon="1.95262">
        <ele>219.763584</ele>
        <time>2022-05-04T12:41:24.220Z</time>
      </trkpt>
      <trkpt lat="44.06573" lon="1.95246">
        <ele>218.203535</ele>
        <time>2022-05-04T12:41:39.214Z</time>
      </trkpt>
      <trkpt lat="44.06626" lon="1.94963">
        <ele>195.477579</ele>
        <time>2022-05-04T12:45:05.652Z</time>
      </trkpt>
      <trkpt lat="44.06631" lon="1.94944">
        <ele>193.935528</ele>
        <time>2022-05-04T12:45:19.017Z</time>
      </trkpt>
      <trkpt lat="44.06641" lon="1.94932">
        <ele>192.532783</ele>
        <time>2022-05-04T12:45:31.758Z</time>
      </trkpt>
      <trkpt lat="44.06649" lon="1.94926">
        <ele>191.470174</ele>
        <time>2022-05-04T12:45:41.026Z</time>
      </trkpt>
      <trkpt lat="44.06659" lon="1.94919">
        <ele>190.248848</ele>
        <time>2022-05-04T12:45:51.555Z</time>
      </trkpt>
      <trkpt lat="44.06688" lon="1.94915">
        <ele>187.807878</ele>
        <time>2022-05-04T12:46:19.050Z</time>
      </trkpt>
      <trkpt lat="44.06719" lon="1.94919">
        <ele>185.491817</ele>
        <time>2022-05-04T12:46:48.592Z</time>
      </trkpt>
      <trkpt lat="44.06768" lon="1.94824">
        <ele>179.217598</ele>
        <time>2022-05-04T12:48:06.640Z</time>
      </trkpt>
      <trkpt lat="44.0679" lon="1.94771">
        <ele>175.985265</ele>
        <time>2022-05-04T12:48:44.997Z</time>
      </trkpt>
      <trkpt lat="44.06798" lon="1.94676">
        <ele>173.858997</ele>
        <time>2022-05-04T12:49:43.913Z</time>
      </trkpt>
      <trkpt lat="44.06775" lon="1.94493">
        <ele>170.01486</ele>
        <time>2022-05-04T12:51:35.909Z</time>
      </trkpt>
      <trkpt lat="44.0679" lon="1.94441">
        <ele>169.172863</ele>
        <time>2022-05-04T12:52:09.361Z</time>
      </trkpt>
      <trkpt lat="44.06859" lon="1.94317">
        <ele>166.78898</ele>
        <time>2022-05-04T12:53:44.226Z</time>
      </trkpt>
      <trkpt lat="44.06881" lon="1.94248">
        <ele>166.077721</ele>
        <time>2022-05-04T12:54:28.547Z</time>
      </trkpt>
      <trkpt lat="44.06916" lon="1.94189">
        <ele>165.38244</ele>
        <time>2022-05-04T12:55:14.106Z</time>
      </trkpt>
      <trkpt lat="44.06944" lon="1.9414">
        <ele>164.817439</ele>
        <time>2022-05-04T12:55:51.007Z</time>
      </trkpt>
      <trkpt lat="44.06962" lon="1.9411">
        <ele>164.46821</ele>
        <time>2022-05-04T12:56:13.697Z</time>
      </trkpt>
      <trkpt lat="44.06977" lon="1.94071">
        <ele>164.518181</ele>
        <time>2022-05-04T12:56:39.373Z</time>
      </trkpt>
      <trkpt lat="44.06996" lon="1.94073">
        <ele>164.575688</ele>
        <time>2022-05-04T12:56:54.625Z</time>
      </trkpt>
      <trkpt lat="44.07031" lon="1.94102">
        <ele>164.699326</ele>
        <time>2022-05-04T12:57:27.474Z</time>
      </trkpt>
      <trkpt lat="44.07049" lon="1.94126">
        <ele>164.775402</ele>
        <time>2022-05-04T12:57:47.964Z</time>
      </trkpt>
      <trkpt lat="44.07077" lon="1.94142">
        <ele>164.866851</ele>
        <time>2022-05-04T12:58:12.651Z</time>
      </trkpt>
      <trkpt lat="44.07098" lon="1.94148">
        <ele>164.933705</ele>
        <time>2022-05-04T12:58:30.733Z</time>
      </trkpt>
      <trkpt lat="44.07227" lon="1.94149">
        <ele>166.094536</ele>
        <time>2022-05-04T13:00:17.597Z</time>
      </trkpt>
      <trkpt lat="44.07254" lon="1.94167">
        <ele>166.385771</ele>
        <time>2022-05-04T13:00:42.442Z</time>
      </trkpt>
      <trkpt lat="44.0731" lon="1.94234">
        <ele>167.278113</ele>
        <time>2022-05-04T13:01:43.240Z</time>
      </trkpt>
      <trkpt lat="44.07322" lon="1.94255">
        <ele>167.560794</ele>
        <time>2022-05-04T13:01:59.534Z</time>
      </trkpt>
      <trkpt lat="44.07334" lon="1.94287">
        <ele>167.930382</ele>
        <time>2022-05-04T13:02:20.701Z</time>
      </trkpt>
      <trkpt lat="44.07346" lon="1.94364">
        <ele>168.7448</ele>
        <time>2022-05-04T13:03:08.474Z</time>
      </trkpt>
      <trkpt lat="44.07362" lon="1.94417">
        <ele>169.359202</ele>
        <time>2022-05-04T13:03:43.622Z</time>
      </trkpt>
      <trkpt lat="44.07392" lon="1.94481">
        <ele>171.484154</ele>
        <time>2022-05-04T13:04:31.439Z</time>
      </trkpt>
      <trkpt lat="44.07469" lon="1.94461">
        <ele>174.468189</ele>
        <time>2022-05-04T13:05:42.386Z</time>
      </trkpt>
      <trkpt lat="44.07531" lon="1.94457">
        <ele>177.020447</ele>
        <time>2022-05-04T13:06:42.419Z</time>
      </trkpt>
      <trkpt lat="44.07544" lon="1.94439">
        <ele>177.854007</ele>
        <time>2022-05-04T13:06:58.444Z</time>
      </trkpt>
      <trkpt lat="44.07579" lon="1.94427">
        <ele>179.561522</ele>
        <time>2022-05-04T13:07:32.713Z</time>
      </trkpt>
      <trkpt lat="44.0758" lon="1.94421">
        <ele>179.778158</ele>
        <time>2022-05-04T13:07:39.598Z</time>
      </trkpt>
      <trkpt lat="44.07569" lon="1.94372">
        <ele>181.523359</ele>
        <time>2022-05-04T13:08:13.776Z</time>
      </trkpt>
      <trkpt lat="44.07563" lon="1.94315">
        <ele>183.468073</ele>
        <time>2022-05-04T13:08:51.102Z</time>
      </trkpt>
      <trkpt lat="44.07562" lon="1.94216">
        <ele>186.277214</ele>
        <time>2022-05-04T13:09:55.283Z</time>
      </trkpt>
      <trkpt lat="44.07533" lon="1.94077">
        <ele>189.94246</ele>
        <time>2022-05-04T13:11:26.826Z</time>
      </trkpt>
      <trkpt lat="44.07521" lon="1.94019">
        <ele>191.747135</ele>
        <time>2022-05-04T13:12:06.987Z</time>
      </trkpt>
      <trkpt lat="44.07604" lon="1.94038">
        <ele>196.558143</ele>
        <time>2022-05-04T13:13:27.441Z</time>
      </trkpt>
      <trkpt lat="44.07681" lon="1.94064">
        <ele>201.123652</ele>
        <time>2022-05-04T13:14:45.492Z</time>
      </trkpt>
      <trkpt lat="44.077" lon="1.94076">
        <ele>202.370022</ele>
        <time>2022-05-04T13:15:06.144Z</time>
      </trkpt>
      <trkpt lat="44.07713" lon="1.94086">
        <ele>203.218663</ele>
        <time>2022-05-04T13:15:20.442Z</time>
      </trkpt>
      <trkpt lat="44.07776" lon="1.94187">
        <ele>208.875485</ele>
        <time>2022-05-04T13:16:52.385Z</time>
      </trkpt>
      <trkpt lat="44.07838" lon="1.94178">
        <ele>212.592078</ele>
        <time>2022-05-04T13:17:50.810Z</time>
      </trkpt>
      <trkpt lat="44.07924" lon="1.94356">
        <ele>223.135812</ele>
        <time>2022-05-04T13:20:23.603Z</time>
      </trkpt>
      <trkpt lat="44.07944" lon="1.94411">
        <ele>226.465429</ele>
        <time>2022-05-04T13:21:08.338Z</time>
      </trkpt>
      <trkpt lat="44.07962" lon="1.94451">
        <ele>229.207426</ele>
        <time>2022-05-04T13:21:43.193Z</time>
      </trkpt>
      <trkpt lat="44.0798" lon="1.94482">
        <ele>231.489611</ele>
        <time>2022-05-04T13:22:12.673Z</time>
      </trkpt>
      <trkpt lat="44.08041" lon="1.9454">
        <ele>237.41987</ele>
        <time>2022-05-04T13:23:28.553Z</time>
      </trkpt>
      <trkpt lat="44.08085" lon="1.94564">
        <ele>241.568762</ele>
        <time>2022-05-04T13:24:15.775Z</time>
      </trkpt>
      <trkpt lat="44.08133" lon="1.9457">
        <ele>245.977746</ele>
        <time>2022-05-04T13:25:03.958Z</time>
      </trkpt>
      <trkpt lat="44.08151" lon="1.94583">
        <ele>247.836751</ele>
        <time>2022-05-04T13:25:24.174Z</time>
      </trkpt>
      <trkpt lat="44.08158" lon="1.94614">
        <ele>249.953892</ele>
        <time>2022-05-04T13:25:47.950Z</time>
      </trkpt>
      <trkpt lat="44.08151" lon="1.94717">
        <ele>257.85423</ele>
        <time>2022-05-04T13:27:11.309Z</time>
      </trkpt>
      <trkpt lat="44.08156" lon="1.94743">
        <ele>260.754465</ele>
        <time>2022-05-04T13:27:36.547Z</time>
      </trkpt>
      <trkpt lat="44.0819" lon="1.94746">
        <ele>265.75036</ele>
        <time>2022-05-04T13:28:21.357Z</time>
      </trkpt>
      <trkpt lat="44.08326" lon="1.94715">
        <ele>285.095414</ele>
        <time>2022-05-04T13:31:29.798Z</time>
      </trkpt>
      <trkpt lat="44.08382" lon="1.94741">
        <ele>291.515267</ele>
        <time>2022-05-04T13:32:42.932Z</time>
      </trkpt>
      <trkpt lat="44.08407" lon="1.94787">
        <ele>296.100822</ele>
        <time>2022-05-04T13:33:27.747Z</time>
      </trkpt>
      <trkpt lat="44.08423" lon="1.94834">
        <ele>300.259861</ele>
        <time>2022-05-04T13:34:05.292Z</time>
      </trkpt>
      <trkpt lat="44.08472" lon="1.94961">
        <ele>303.544756</ele>
        <time>2022-05-04T13:35:37.093Z</time>
      </trkpt>
      <trkpt lat="44.08524" lon="1.95012">
        <ele>304.923239</ele>
        <time>2022-05-04T13:36:29.421Z</time>
      </trkpt>
      <trkpt lat="44.08603" lon="1.95048">
        <ele>305.332286</ele>
        <time>2022-05-04T13:37:37.308Z</time>
      </trkpt>
      <trkpt lat="44.08619" lon="1.95063">
        <ele>305.290639</ele>
        <time>2022-05-04T13:37:52.363Z</time>
      </trkpt>
      <trkpt lat="44.08713" lon="1.95089">
        <ele>305.077818</ele>
        <time>2022-05-04T13:39:09.356Z</time>
      </trkpt>
      <trkpt lat="44.0882" lon="1.9504">
        <ele>305.382908</ele>
        <time>2022-05-04T13:40:40.190Z</time>
      </trkpt>
      <trkpt lat="44.0887" lon="1.9503">
        <ele>305.534012</ele>
        <time>2022-05-04T13:41:21.400Z</time>
      </trkpt>
      <trkpt lat="44.08886" lon="1.95036">
        <ele>305.583446</ele>
        <time>2022-05-04T13:41:35.029Z</time>
      </trkpt>
      <trkpt lat="44.08895" lon="1.95046">
        <ele>305.650533</ele>
        <time>2022-05-04T13:41:44.391Z</time>
      </trkpt>
      <trkpt lat="44.08935" lon="1.95093">
        <ele>306.177207</ele>
        <time>2022-05-04T13:42:27.327Z</time>
      </trkpt>
      <trkpt lat="44.0897" lon="1.95111">
        <ele>306.552581</ele>
        <time>2022-05-04T13:42:57.934Z</time>
      </trkpt>
      <trkpt lat="44.0903" lon="1.9517">
        <ele>307.291379</ele>
        <time>2022-05-04T13:43:58.798Z</time>
      </trkpt>
      <trkpt lat="44.09034" lon="1.95199">
        <ele>307.663239</ele>
        <time>2022-05-04T13:44:17.198Z</time>
      </trkpt>
      <trkpt lat="44.09043" lon="1.95216">
        <ele>308.045834</ele>
        <time>2022-05-04T13:44:30.154Z</time>
      </trkpt>
      <trkpt lat="44.09109" lon="1.95298">
        <ele>310.302698</ele>
        <time>2022-05-04T13:45:48.085Z</time>
      </trkpt>
      <trkpt lat="44.09173" lon="1.95354">
        <ele>312.104327</ele>
        <time>2022-05-04T13:46:55.195Z</time>
      </trkpt>
      <trkpt lat="44.09301" lon="1.95439">
        <ele>313.580976</ele>
        <time>2022-05-04T13:48:55.259Z</time>
      </trkpt>
      <trkpt lat="44.09341" lon="1.95488">
        <ele>313.602286</ele>
        <time>2022-05-04T13:49:38.810Z</time>
      </trkpt>
      <trkpt lat="44.09447" lon="1.95587">
        <ele>312.151259</ele>
        <time>2022-05-04T13:51:24.620Z</time>
      </trkpt>
      <trkpt lat="44.09467" lon="1.95618">
        <ele>311.863398</ele>
        <time>2022-05-04T13:51:49.614Z</time>
      </trkpt>
      <trkpt lat="44.09524" lon="1.95745">
        <ele>313.399558</ele>
        <time>2022-05-04T13:53:18.589Z</time>
      </trkpt>
      <trkpt lat="44.09591" lon="1.95973">
        <ele>316.888397</ele>
        <time>2022-05-04T13:55:54.105Z</time>
      </trkpt>
      <trkpt lat="44.09594" lon="1.95995">
        <ele>317.271817</ele>
        <time>2022-05-04T13:56:08.236Z</time>
      </trkpt>
      <trkpt lat="44.09589" lon="1.96056">
        <ele>318.283328</ele>
        <time>2022-05-04T13:56:45.351Z</time>
      </trkpt>
      <trkpt lat="44.09593" lon="1.96096">
        <ele>318.713821</ele>
        <time>2022-05-04T13:57:09.938Z</time>
      </trkpt>
      <trkpt lat="44.09613" lon="1.96172">
        <ele>319.152658</ele>
        <time>2022-05-04T13:57:58.168Z</time>
      </trkpt>
      <trkpt lat="44.09633" lon="1.963">
        <ele>319.86112</ele>
        <time>2022-05-04T13:59:15.511Z</time>
      </trkpt>
      <trkpt lat="44.09659" lon="1.96382">
        <ele>318.136201</ele>
        <time>2022-05-04T14:00:07.717Z</time>
      </trkpt>
      <trkpt lat="44.09662" lon="1.96415">
        <ele>317.309532</ele>
        <time>2022-05-04T14:00:27.836Z</time>
      </trkpt>
      <trkpt lat="44.09669" lon="1.96418">
        <ele>317.047313</ele>
        <time>2022-05-04T14:00:34.351Z</time>
      </trkpt>
      <trkpt lat="44.097" lon="1.96375">
        <ele>315.549073</ele>
        <time>2022-05-04T14:01:11.949Z</time>
      </trkpt>
      <trkpt lat="44.09743" lon="1.96307">
        <ele>312.371418</ele>
        <time>2022-05-04T14:02:10.491Z</time>
      </trkpt>
      <trkpt lat="44.09798" lon="1.96266">
        <ele>305.853901</ele>
        <time>2022-05-04T14:03:08.829Z</time>
      </trkpt>
      <trkpt lat="44.09817" lon="1.96266">
        <ele>303.825643</ele>
        <time>2022-05-04T14:03:27.526Z</time>
      </trkpt>
      <trkpt lat="44.09872" lon="1.96282">
        <ele>297.916808</ele>
        <time>2022-05-04T14:04:23.982Z</time>
      </trkpt>
      <trkpt lat="44.0989" lon="1.96274">
        <ele>295.972536</ele>
        <time>2022-05-04T14:04:42.707Z</time>
      </trkpt>
      <trkpt lat="44.09928" lon="1.96235">
        <ele>290.583708</ele>
        <time>2022-05-04T14:05:30.133Z</time>
      </trkpt>
      <trkpt lat="44.09966" lon="1.96174">
        <ele>283.874901</ele>
        <time>2022-05-04T14:06:27.184Z</time>
      </trkpt>
      <trkpt lat="44.10057" lon="1.96085">
        <ele>271.880653</ele>
        <time>2022-05-04T14:08:16.042Z</time>
      </trkpt>
      <trkpt lat="44.10168" lon="1.96115">
        <ele>263.142859</ele>
        <time>2022-05-04T14:10:00.080Z</time>
      </trkpt>
      <trkpt lat="44.10206" lon="1.96104">
        <ele>260.118722</ele>
        <time>2022-05-04T14:10:35.168Z</time>
      </trkpt>
      <trkpt lat="44.10245" lon="1.9608">
        <ele>258.200526</ele>
        <time>2022-05-04T14:11:12.534Z</time>
      </trkpt>
      <trkpt lat="44.10257" lon="1.96077">
        <ele>257.686102</ele>
        <time>2022-05-04T14:11:22.827Z</time>
      </trkpt>
      <trkpt lat="44.10285" lon="1.96087">
        <ele>256.386165</ele>
        <time>2022-05-04T14:11:48.721Z</time>
      </trkpt>
      <trkpt lat="44.10285" lon="1.9605">
        <ele>255.207821</ele>
        <time>2022-05-04T14:12:11.851Z</time>
      </trkpt>
      <trkpt lat="44.10292" lon="1.96028">
        <ele>254.461361</ele>
        <time>2022-05-04T14:12:26.496Z</time>
      </trkpt>
      <trkpt lat="44.10314" lon="1.96014">
        <ele>253.39442</ele>
        <time>2022-05-04T14:12:47.289Z</time>
      </trkpt>
      <trkpt lat="44.10362" lon="1.95998">
        <ele>251.553572</ele>
        <time>2022-05-04T14:13:30.426Z</time>
      </trkpt>
      <trkpt lat="44.10465" lon="1.95905">
        <ele>248.39159</ele>
        <time>2022-05-04T14:15:13.297Z</time>
      </trkpt>
      <trkpt lat="44.10474" lon="1.95922">
        <ele>248.000797</ele>
        <time>2022-05-04T14:15:26.158Z</time>
      </trkpt>
      <trkpt lat="44.1049" lon="1.95936">
        <ele>247.504549</ele>
        <time>2022-05-04T14:15:42.118Z</time>
      </trkpt>
      <trkpt lat="44.10517" lon="1.95943">
        <ele>247.079838</ele>
        <time>2022-05-04T14:16:05.514Z</time>
      </trkpt>
      <trkpt lat="44.1056" lon="1.95972">
        <ele>246.413976</ele>
        <time>2022-05-04T14:16:45.497Z</time>
      </trkpt>
      <trkpt lat="44.10708" lon="1.96098">
        <ele>246.154975</ele>
        <time>2022-05-04T14:19:06.620Z</time>
      </trkpt>
      <trkpt lat="44.1071" lon="1.96141">
        <ele>246.730302</ele>
        <time>2022-05-04T14:19:32.542Z</time>
      </trkpt>
      <trkpt lat="44.10739" lon="1.96164">
        <ele>247.362166</ele>
        <time>2022-05-04T14:20:01.748Z</time>
      </trkpt>
      <trkpt lat="44.10759" lon="1.96188">
        <ele>247.857777</ele>
        <time>2022-05-04T14:20:25.720Z</time>
      </trkpt>
      <trkpt lat="44.10869" lon="1.9632">
        <ele>254.696813</ele>
        <time>2022-05-04T14:22:43.512Z</time>
      </trkpt>
      <trkpt lat="44.10946" lon="1.9644">
        <ele>260.809826</ele>
        <time>2022-05-04T14:24:33.640Z</time>
      </trkpt>
      <trkpt lat="44.10987" lon="1.96534">
        <ele>264.987057</ele>
        <time>2022-05-04T14:25:48.915Z</time>
      </trkpt>
      <trkpt lat="44.11058" lon="1.96791">
        <ele>274.000507</ele>
        <time>2022-05-04T14:28:53.619Z</time>
      </trkpt>
      <trkpt lat="44.11107" lon="1.96762">
        <ele>275.307672</ele>
        <time>2022-05-04T14:29:40.087Z</time>
      </trkpt>
      <trkpt lat="44.11148" lon="1.96749">
        <ele>275.571603</ele>
        <time>2022-05-04T14:30:16.173Z</time>
      </trkpt>
      <trkpt lat="44.11157" lon="1.96749">
        <ele>275.622915</ele>
        <time>2022-05-04T14:30:22.987Z</time>
      </trkpt>
      <trkpt lat="44.1128" lon="1.9673">
        <ele>275.939887</ele>
        <time>2022-05-04T14:32:03.734Z</time>
      </trkpt>
      <trkpt lat="44.11352" lon="1.96728">
        <ele>274.944804</ele>
        <time>2022-05-04T14:33:03.653Z</time>
      </trkpt>
      <trkpt lat="44.11407" lon="1.96703">
        <ele>274.142839</ele>
        <time>2022-05-04T14:33:51.691Z</time>
      </trkpt>
      <trkpt lat="44.11439" lon="1.96696">
        <ele>273.712373</ele>
        <time>2022-05-04T14:34:18.378Z</time>
      </trkpt>
      <trkpt lat="44.11527" lon="1.96679">
        <ele>272.831827</ele>
        <time>2022-05-04T14:35:30.465Z</time>
      </trkpt>
      <trkpt lat="44.11649" lon="1.96667">
        <ele>271.17017</ele>
        <time>2022-05-04T14:37:10.282Z</time>
      </trkpt>
      <trkpt lat="44.11808" lon="1.96614">
        <ele>266.816643</ele>
        <time>2022-05-04T14:39:26.836Z</time>
      </trkpt>
      <trkpt lat="44.11849" lon="1.96598">
        <ele>264.182693</ele>
        <time>2022-05-04T14:40:05.186Z</time>
      </trkpt>
      <trkpt lat="44.11895" lon="1.9657">
        <ele>261.155497</ele>
        <time>2022-05-04T14:40:49.999Z</time>
      </trkpt>
      <trkpt lat="44.11972" lon="1.96507">
        <ele>254.64443</ele>
        <time>2022-05-04T14:42:12.900Z</time>
      </trkpt>
      <trkpt lat="44.12016" lon="1.96484">
        <ele>249.627449</ele>
        <time>2022-05-04T14:42:57.076Z</time>
      </trkpt>
      <trkpt lat="44.12039" lon="1.96482">
        <ele>247.121105</ele>
        <time>2022-05-04T14:43:18.946Z</time>
      </trkpt>
      <trkpt lat="44.12075" lon="1.96512">
        <ele>242.505883</ele>
        <time>2022-05-04T14:44:01.734Z</time>
      </trkpt>
      <trkpt lat="44.12183" lon="1.96568">
        <ele>231.344883</ele>
        <time>2022-05-04T14:45:56.493Z</time>
      </trkpt>
      <trkpt lat="44.12204" lon="1.96565">
        <ele>229.376696</ele>
        <time>2022-05-04T14:46:18.046Z</time>
      </trkpt>
      <trkpt lat="44.1221" lon="1.96577">
        <ele>228.47097</ele>
        <time>2022-05-04T14:46:27.812Z</time>
      </trkpt>
      <trkpt lat="44.12225" lon="1.96587">
        <ele>227.002876</ele>
        <time>2022-05-04T14:46:42.870Z</time>
      </trkpt>
      <trkpt lat="44.12301" lon="1.96568">
        <ele>222.133019</ele>
        <time>2022-05-04T14:47:52.160Z</time>
      </trkpt>
      <trkpt lat="44.12326" lon="1.96573">
        <ele>223.541342</ele>
        <time>2022-05-04T14:48:13.057Z</time>
      </trkpt>
      <trkpt lat="44.12552" lon="1.9668">
        <ele>242.5369</ele>
        <time>2022-05-04T14:52:23.818Z</time>
      </trkpt>
      <trkpt lat="44.12575" lon="1.96682">
        <ele>245.144053</ele>
        <time>2022-05-04T14:52:50.325Z</time>
      </trkpt>
      <trkpt lat="44.12618" lon="1.9665">
        <ele>250.652108</ele>
        <time>2022-05-04T14:53:53.055Z</time>
      </trkpt>
      <trkpt lat="44.12707" lon="1.96627">
        <ele>262.461564</ele>
        <time>2022-05-04T14:55:46.467Z</time>
      </trkpt>
      <trkpt lat="44.12743" lon="1.96635">
        <ele>267.344309</ele>
        <time>2022-05-04T14:56:34.365Z</time>
      </trkpt>
      <trkpt lat="44.12886" lon="1.96641">
        <ele>281.214742</ele>
        <time>2022-05-04T14:59:13.814Z</time>
      </trkpt>
      <trkpt lat="44.12947" lon="1.96666">
        <ele>285.653217</ele>
        <time>2022-05-04T15:00:14.857Z</time>
      </trkpt>
      <trkpt lat="44.12974" lon="1.96682">
        <ele>287.716881</ele>
        <time>2022-05-04T15:00:39.657Z</time>
      </trkpt>
      <trkpt lat="44.13034" lon="1.96687">
        <ele>285.995734</ele>
        <time>2022-05-04T15:01:28.460Z</time>
      </trkpt>
      <trkpt lat="44.13046" lon="1.96708">
        <ele>285.232661</ele>
        <time>2022-05-04T15:01:44.740Z</time>
      </trkpt>
      <trkpt lat="44.13042" lon="1.96756">
        <ele>283.863168</ele>
        <time>2022-05-04T15:02:15.202Z</time>
      </trkpt>
      <trkpt lat="44.1306" lon="1.9678">
        <ele>282.891385</ele>
        <time>2022-05-04T15:02:37.687Z</time>
      </trkpt>
      <trkpt lat="44.13127" lon="1.96788">
        <ele>279.619686</ele>
        <time>2022-05-04T15:03:39.364Z</time>
      </trkpt>
      <trkpt lat="44.13276" lon="1.96845">
        <ele>268.647281</ele>
        <time>2022-05-04T15:06:01.754Z</time>
      </trkpt>
      <trkpt lat="44.13286" lon="1.96844">
        <ele>268.062686</ele>
        <time>2022-05-04T15:06:10.587Z</time>
      </trkpt>
      <trkpt lat="44.13294" lon="1.96834">
        <ele>267.624575</ele>
        <time>2022-05-04T15:06:19.791Z</time>
      </trkpt>
      <trkpt lat="44.13301" lon="1.9682">
        <ele>267.114588</ele>
        <time>2022-05-04T15:06:30.521Z</time>
      </trkpt>
      <trkpt lat="44.13308" lon="1.9678">
        <ele>265.830877</ele>
        <time>2022-05-04T15:06:56.901Z</time>
      </trkpt>
      <trkpt lat="44.13327" lon="1.9676">
        <ele>264.824359</ele>
        <time>2022-05-04T15:07:17.336Z</time>
      </trkpt>
      <trkpt lat="44.13337" lon="1.96763">
        <ele>264.40078</ele>
        <time>2022-05-04T15:07:26.276Z</time>
      </trkpt>
      <trkpt lat="44.13346" lon="1.96779">
        <ele>263.784622</ele>
        <time>2022-05-04T15:07:38.844Z</time>
      </trkpt>
      <trkpt lat="44.13352" lon="1.96813">
        <ele>262.730422</ele>
        <time>2022-05-04T15:08:00.148Z</time>
      </trkpt>
      <trkpt lat="44.13358" lon="1.9691">
        <ele>259.835383</ele>
        <time>2022-05-04T15:08:59.253Z</time>
      </trkpt>
      <trkpt lat="44.13364" lon="1.96924">
        <ele>259.354956</ele>
        <time>2022-05-04T15:09:09.707Z</time>
      </trkpt>
      <trkpt lat="44.13376" lon="1.96933">
        <ele>258.854252</ele>
        <time>2022-05-04T15:09:20.467Z</time>
      </trkpt>
      <trkpt lat="44.13389" lon="1.96932">
        <ele>258.321519</ele>
        <time>2022-05-04T15:09:32.497Z</time>
      </trkpt>
      <trkpt lat="44.13422" lon="1.96903">
        <ele>256.793444</ele>
        <time>2022-05-04T15:10:05.935Z</time>
      </trkpt>
      <trkpt lat="44.13443" lon="1.96894">
        <ele>255.956188</ele>
        <time>2022-05-04T15:10:24.188Z</time>
      </trkpt>
      <trkpt lat="44.13589" lon="1.96905">
        <ele>248.146964</ele>
        <time>2022-05-04T15:12:33.104Z</time>
      </trkpt>
      <trkpt lat="44.13671" lon="1.96898">
        <ele>242.879778</ele>
        <time>2022-05-04T15:13:48.837Z</time>
      </trkpt>
      <trkpt lat="44.13736" lon="1.96856">
        <ele>236.411762</ele>
        <time>2022-05-04T15:14:55.698Z</time>
      </trkpt>
      <trkpt lat="44.13739" lon="1.96863">
        <ele>235.814953</ele>
        <time>2022-05-04T15:15:01.932Z</time>
      </trkpt>
      <trkpt lat="44.13775" lon="1.96865">
        <ele>232.425542</ele>
        <time>2022-05-04T15:15:35.963Z</time>
      </trkpt>
      <trkpt lat="44.13796" lon="1.96847">
        <ele>230.010897</ele>
        <time>2022-05-04T15:16:00.335Z</time>
      </trkpt>
      <trkpt lat="44.13891" lon="1.96824">
        <ele>221.399043</ele>
        <time>2022-05-04T15:17:32.958Z</time>
      </trkpt>
      <trkpt lat="44.13949" lon="1.96824">
        <ele>216.65726</ele>
        <time>2022-05-04T15:18:26.527Z</time>
      </trkpt>
      <trkpt lat="44.1408" lon="1.9683">
        <ele>207.886032</ele>
        <time>2022-05-04T15:20:26.316Z</time>
      </trkpt>
      <trkpt lat="44.14127" lon="1.96837">
        <ele>205.788767</ele>
        <time>2022-05-04T15:21:07.971Z</time>
      </trkpt>
      <trkpt lat="44.14196" lon="1.9686">
        <ele>202.714864</ele>
        <time>2022-05-04T15:22:07.277Z</time>
      </trkpt>
      <trkpt lat="44.1422" lon="1.96865">
        <ele>201.308212</ele>
        <time>2022-05-04T15:22:27.543Z</time>
      </trkpt>
      <trkpt lat="44.14226" lon="1.96875">
        <ele>200.641563</ele>
        <time>2022-05-04T15:22:36.054Z</time>
      </trkpt>
      <trkpt lat="44.1423" lon="1.969">
        <ele>199.439209</ele>
        <time>2022-05-04T15:22:51.222Z</time>
      </trkpt>
      <trkpt lat="44.14234" lon="1.96928">
        <ele>198.047716</ele>
        <time>2022-05-04T15:23:08.619Z</time>
      </trkpt>
      <trkpt lat="44.1422" lon="1.9706">
        <ele>191.635012</ele>
        <time>2022-05-04T15:24:36.743Z</time>
      </trkpt>
      <trkpt lat="44.14233" lon="1.97027">
        <ele>190.215565</ele>
        <time>2022-05-04T15:25:02.942Z</time>
      </trkpt>
      <trkpt lat="44.14225" lon="1.97064">
        <ele>190.215565</ele>
        <time>2022-05-04T15:25:30.097Z</time>
      </trkpt>
      <trkpt lat="44.14229" lon="1.971">
        <ele>190.215565</ele>
        <time>2022-05-04T15:25:56.391Z</time>
      </trkpt>
      <trkpt lat="44.14239" lon="1.9709">
        <ele>190.215565</ele>
        <time>2022-05-04T15:26:08.927Z</time>
      </trkpt>
      <trkpt lat="44.14286" lon="1.97077">
        <ele>190.215565</ele>
        <time>2022-05-04T15:26:58.244Z</time>
      </trkpt>
      <trkpt lat="44.14302" lon="1.97074">
        <ele>190.215565</ele>
        <time>2022-05-04T15:27:14.567Z</time>
      </trkpt>
      <trkpt lat="44.14309" lon="1.97079">
        <ele>190.215565</ele>
        <time>2022-05-04T15:27:21.974Z</time>
      </trkpt>
      <trkpt lat="44.1431" lon="1.97082">
        <ele>190.215565</ele>
        <time>2022-05-04T15:27:24.901Z</time>
      </trkpt>
      <trkpt lat="44.14316" lon="1.97079">
        <ele>190.215565</ele>
        <time>2022-05-04T15:27:30.782Z</time>
      </trkpt>
      <trkpt lat="44.14344" lon="1.97124">
        <ele>190.215565</ele>
        <time>2022-05-04T15:28:13.423Z</time>
      </trkpt>
      <trkpt lat="44.14355" lon="1.97139">
        <ele>190.215565</ele>
        <time>2022-05-04T15:28:29.016Z</time>
      </trkpt>
      <trkpt lat="44.14361" lon="1.97146">
        <ele>190.215565</ele>
        <time>2022-05-04T15:28:36.527Z</time>
      </trkpt>
      <trkpt lat="44.14358" lon="1.97148">
        <ele>190.215565</ele>
        <time>2022-05-04T15:28:39.235Z</time>
      </trkpt>
      <trkpt lat="44.14354" lon="1.97152">
        <ele>190.215565</ele>
        <time>2022-05-04T15:28:43.936Z</time>
      </trkpt>
    </trkseg>
  </trk>
</gpx>